Barcroft Research Lab Weather observations

Data are for 10 minute period ending at time listed.
 Day   Time   Solar   Ave.   Ave.  Ave.  Vector  Std.   Max.    Baro.    
  of    of     Rad.   Air    Rel.  Wind   Wind   Dev.   Wind   Press.    
Year   Day            Temp.  Hum.  Speed  Dir.   Dir.   Gust            
2015   (PST)  Kw/m2    F      %     mph   deg.   deg.    mph     mb.    
------------------------------------------------------------------------
 143    7:30     973   30.6    92    6.7   306    -99    10.9   640.80  
 143    7:40     930   31.3    90    7.0   307    -99    10.2   640.80  
 143    7:50    1103   31.5    88    5.8   318    -99     8.8   640.80  
 143    8:00    1037   32.9    86    5.6   301    -99     9.6   640.80  
 143    8:10    1056   32.5    86    7.7   302    -99    10.7   641.00  
 143    8:20    1175   32.0    85   10.2   294    -99    13.1   641.00  
 143    8:30    1261   30.8    86    9.4   287    -99    13.7   641.00  
 143    8:40    1074   31.1    86   10.3   291    -99    14.8   641.00  
 143    8:50     902   30.6    90    9.7   293    -99    15.4   641.00  
 143    9:00     866   30.2    90   10.3   297    -99    15.7   641.00  
 143    9:10     827   29.8    91   10.4   282    -99    17.8   641.00  
 143    9:20     752   29.3    93   10.3   289    -99    16.6   641.00  
 143    9:30    1036   31.3    88    8.5   297    -99    11.9   641.00  
 143    9:40    1198   32.0    84    9.5   296    -99    13.3   641.00  
 143    9:50    1128   32.3    81   11.9   303    -99    17.3   641.00  
 143   10:00    1040   31.1    84   12.6   289    -99    16.6   641.00  
 143   10:10     752   29.8    88   10.2   289    -99    16.1   641.10  
 143   10:20     943   31.5    86    9.8   295    -99    15.3   641.10  
 143   10:30     846   31.9    84    9.9   293    -99    14.1   641.10  
 143   10:40     622   29.8    90   10.1   284    -99    12.9   641.10  
 143   10:50    1016   30.5    87    8.2   302    -99    12.2   641.10  
 143   11:00     756   32.1    83    8.6   301    -99    13.7   641.10  
 143   11:10     867   32.0    82    5.5   282    -99     8.5   641.00  
 143   11:20     456   31.0    85    5.4   270    -99     8.0   641.00  
 143   11:30     398   29.3    93    6.1   241    -99     9.1   641.00  
 143   11:40     704   29.0    96    7.3   233    -99     9.7   641.00  
 143   11:50    1160   30.5    92    8.6   249    -99    12.9   641.00  
 143   12:00     993   30.1    89    8.3   255    -99    16.0   641.00  
 143   12:10     916   29.9    87    8.5   271    -99    18.0   640.80  
 143   12:20     676   29.5    88    7.9   265    -99    13.0   640.80  
 143   12:30     422   29.3    91    6.9   258    -99    11.8   640.80  
 143   12:40     428   29.4    90    8.0   270    -99    13.2   640.80  
 143   12:50     505   29.3    90    8.7   282    -99    16.7   640.80  
 143   13:00     601   30.0    89   11.3   292    -99    16.1   640.80  
 143   13:10     568   29.4    92   11.9   286    -99    16.5   640.50  
 143   13:20     457   29.6    90   11.0   294    -99    17.5   640.50  
 143   13:30     351   29.1    92    8.9   306    -99    12.2   640.50  
 143   13:40     307   29.6    90    6.0   304    -99    11.0   640.50  
 143   13:50     263   29.2    87    3.7   324    -99     5.8   640.50  
 143   14:00     225   29.9    88    2.7   254    -99     9.9   640.50  
 143   14:10     201   27.8    92    6.2   268    -99    11.8   640.20  
 143   14:20     187   27.1    94    5.7   265    -99     9.9   640.20  
 143   14:30     135   27.0    97    6.3   266    -99    13.8   640.20  
 143   14:40      84   26.1    99    9.1   274    -99    15.7   640.20  
 143   14:50      71   25.6   100   10.9   295    -99    17.5   640.20  
 143   15:00      59   25.4   100   12.4   305    -99    15.7   640.20  
 143   15:10      54   25.3   100    9.8   308    -99    13.7   640.10  
 143   15:20      54   25.3   100    8.3   307    -99    13.0   640.10  
 143   15:30      55   25.4   100    6.2   305    -99     9.9   640.10  
 143   15:40      53   25.6   100    6.2   303    -99     9.1   640.10  
 143   15:50      43   25.4   100    8.2   295    -99    13.4   640.10  
 143   16:00      32   24.9   100    7.5   313    -99    12.2   640.10  
 143   16:10      24   24.8   100    7.3   314    -99    11.2   640.30  
 143   16:20      19   24.5   100    9.5   299    -99    13.4   640.30  
 143   16:30      13   24.1   100    7.1   309    -99    10.7   640.30  
 143   16:40       9   24.2   100    9.3   315    -99    13.1   640.30  
 143   16:50       5   23.9   100    8.8   321    -99    11.2   640.30  
 143   17:00       2   23.8   100    8.8   317    -99    10.7   640.30  
 143   17:10       1   23.7   100    7.5   318    -99    10.8   640.10  
 143   17:20       0   23.6   100    7.9   308    -99    10.7   640.10  
 143   17:30       0   23.5   100    7.0   309    -99     9.0   640.10  
 143   17:40       0   23.4   100    7.5   299    -99     9.7   640.10  
 143   17:50       0   23.5   100    5.0   309    -99     9.6   640.10  
 143   18:00       0   23.6   100    4.0   354    -99     6.5   640.10  
 143   18:10       0   23.9   100    5.7    18    -99    10.3   640.40  
 143   18:20       0   24.0   100    9.4    19    -99    15.9   640.40  
 143   18:30       0   24.0   100    8.1    25    -99    13.2   640.40  
 143   18:40       0   24.1   100    8.2    35    -99    14.5   640.40  
 143   18:50       0   24.2   100    9.7    33    -99    16.1   640.40  
 143   19:00       0   24.2   100   10.3    31    -99    19.1   640.40  
 143   19:10       0   24.2   100   11.2    32    -99    18.1   640.40  
 143   19:20       0   24.3   100   12.4    32    -99    17.5   640.40  
 143   19:30       0   24.2   100   11.7    26    -99    17.7   640.40  
 143   19:40       0   24.2   100   12.6    28    -99    19.1   640.40  
 143   19:50       0   24.2   100   11.6    30    -99    17.2   640.40  
 143   20:00       0   24.2   100   11.6    38    -99    20.3   640.40  
 143   20:10       0   24.2   100   12.2    44    -99    20.0   640.50  
 143   20:20       0   24.3   100   13.6    51    -99    23.2   640.50  
 143   20:30       0   24.5   100   12.6    47    -99    22.1   640.50  
 143   20:40       0   24.5   100   10.6    34    -99    17.3   640.50  
 143   20:50       0   24.7   100   11.6    31    -99    16.5   640.50  
 143   21:00       0   24.7   100   10.5    32    -99    17.9   640.50  
 143   21:10       0   24.7   100   10.0    33    -99    15.9   640.70  
 143   21:20       0   24.7   100   10.0    31    -99    15.0   640.70  
 143   21:30       0   24.6   100   10.3    31    -99    16.7   640.70  
 143   21:40       0   24.5   100    9.2    28    -99    13.3   640.70  
 143   21:50       0   24.5   100    9.5    28    -99    13.4   640.70  
 143   22:00       0   24.4   100    9.0    25    -99    14.9   640.70  
 143   22:10       0   24.1   100    8.1    23    -99    13.1   640.90  
 143   22:20       0   23.8   100    7.8    27    -99    12.7   640.90  
 143   22:30       0   23.6   100    6.2    26    -99     9.7   640.90  
 143   22:40       0   23.4   100    6.8    36    -99    10.4   640.90  
 143   22:50       0   23.4   100    8.6    43    -99    14.4   640.90  
 143   23:00       0   23.6   100    9.2    49    -99    12.8   640.90  
 143   23:10       0   23.5   100    6.7    45    -99    10.9   640.90  
 143   23:20       0   23.5   100    6.4    42    -99     9.1   640.90  
 143   23:30       0   23.8   100    7.0    39    -99    12.7   640.90  
 143   23:40       0   24.1   100    7.1    39    -99    12.3   640.90  
 143   23:50       0   24.4   100    7.8    43    -99    11.9   640.90  
 144    0:00       0   24.5   100    9.1    48    -99    16.5   640.90  
 144    0:10       0   24.5   100    8.7    38    -99    15.1   640.80  
 144    0:20       0   24.5   100    7.3    35    -99    13.0   640.80  
 144    0:30       0   24.5   100    6.8    35    -99    12.0   640.80  
 144    0:40       0   24.5   100    6.7    38    -99    11.4   640.80  
 144    0:50       0   24.4   100    6.5    28    -99    12.3   640.80  
 144    1:00       0   24.3   100    4.5    13    -99     8.2   640.80  
 144    1:10       0   24.3   100    3.0   338    -99     5.0   640.70  
 144    1:20       0   24.2   100    4.1   344    -99     7.8   640.70  
 144    1:30       0   24.2   100    4.9     9    -99     7.1   640.70  
 144    1:40       0   24.1   100    4.5    17    -99     7.2   640.70  
 144    1:50       0   24.1   100    4.8   346    -99     7.0   640.70  
 144    2:00       0   24.1   100    5.9    16    -99     9.3   640.70  
 144    2:10       0   23.9   100    6.5    18    -99    10.2   640.80  
 144    2:20       0   23.4   100    6.1    14    -99     8.9   640.80  
 144    2:30       1   22.8   100    6.0     9    -99     8.7   640.80  
 144    2:40       4   22.6   100    5.4     6    -99     8.0   640.80  
 144    2:50       6   22.5   100    5.1     7    -99     8.6   640.80  
 144    3:00      10   22.1   100    4.9   332    -99     8.4   640.80  
 144    3:10      46   20.4   100    5.9   329    -99     8.4   641.00  
 144    3:20      96   21.2   100    7.7   319    -99     9.8   641.00  
 144    3:30     140   22.2   100    7.4   308    -99     9.9   641.00  
 144    3:40     185   22.8   100    6.3   320    -99    10.7   641.00  
 144    3:50     219   23.2   100    8.9   300    -99    10.7   641.00  
 144    4:00     249   24.0   100    7.7   309    -99     9.7   641.00  
 144    4:10     277   25.4   100    7.2   317    -99     8.9   641.30  
 144    4:20     306   25.5   100    7.6   318    -99    10.4   641.30  
 144    4:30     337   25.9   100    7.7   331    -99    10.4   641.30  
 144    4:40     370   25.8   100    8.1   335    -99    10.6   641.30  
 144    4:50     408   26.3   100    8.2   337    -99    10.3   641.30  
 144    5:00     445   26.8   100    8.3   342    -99    11.9   641.30  
 144    5:10     482   27.3   100    9.3   348    -99    12.6   641.50  
 144    5:20     517   27.9   100    7.7   344    -99    12.3   641.50  
 144    5:30     556   28.5   100    4.5    11    -99     9.4   641.50  
 144    5:40     594   29.3   100    2.8    40    -99     7.2   641.50  
 144    5:50     624   30.2   100    6.2   338    -99     9.1   641.50  
 144    6:00     661   29.6   100    6.8   358    -99    10.7   641.50  
 144    6:10     691   29.6   100    5.6   341    -99     7.8   641.70  
 144    6:20     723   30.3   100    4.3     5    -99     7.3   641.70  
 144    6:30     751   31.1   100    3.0    38    -99     5.0   641.70  
 144    6:40     800   31.7   100    2.1    20    -99     4.5   641.70  
 144    6:50     821   32.0   100    3.1    40    -99     5.6   641.70  
 144    7:00     815   31.9   100    3.8    34    -99     7.8   641.70  
 144    7:10     877   31.9   100    2.8    58    -99     5.7   641.90  
 144    7:20     878   31.9   100    5.7    42    -99     9.5   641.90  

Return to Barcroft Research Lab graphs page.


Western Regional Climate Center,wrcc@dri.edu